createdAt,value
2018-06-13T00:00:21.313Z,93.21
2018-06-13T00:01:21.226Z,93.50
2018-06-13T00:03:14.216Z,93.40
2018-06-13T00:04:14.172Z,93.21
2018-06-13T00:06:07.187Z,93.59
2018-06-13T00:07:07.135Z,93.21
2018-06-13T00:09:00.278Z,93.21
2018-06-13T00:10:00.245Z,93.21
2018-06-13T00:11:53.264Z,93.02
2018-06-13T00:12:53.333Z,93.30
2018-06-13T00:14:46.359Z,93.40
2018-06-13T00:15:46.310Z,93.30
2018-06-13T00:17:39.318Z,93.69
2018-06-13T00:18:39.266Z,93.74
2018-06-13T00:20:32.262Z,93.74
2018-06-13T00:21:32.235Z,93.98
2018-06-13T00:23:25.383Z,94.21
2018-06-13T00:24:25.308Z,94.31
2018-06-13T00:26:18.320Z,93.93
2018-06-13T00:27:18.266Z,94.31
2018-06-13T00:29:11.530Z,94.41
2018-06-13T00:30:11.402Z,94.89
2018-06-13T00:32:04.376Z,94.12
2018-06-13T00:33:04.343Z,93.84
2018-06-13T00:34:57.250Z,94.21
2018-06-13T00:35:57.126Z,94.12
2018-06-13T00:37:50.137Z,94.12
2018-06-13T00:38:50.088Z,93.74
2018-06-13T00:40:43.098Z,94.31
2018-06-13T00:41:43.053Z,94.12
2018-06-13T00:43:36.056Z,93.55
2018-06-13T00:44:36.011Z,93.84
2018-06-13T00:46:29.222Z,94.12
2018-06-13T00:47:29.118Z,93.64
2018-06-13T00:49:22.141Z,93.35
2018-06-13T00:50:22.091Z,93.16
2018-06-13T00:52:14.922Z,93.64
2018-06-13T00:53:14.872Z,93.64
2018-06-13T00:55:07.885Z,94.17
2018-06-13T00:56:07.831Z,94.36
2018-06-13T00:58:01.028Z,94.17
2018-06-13T00:59:00.972Z,93.88
2018-06-13T01:00:53.961Z,94.12
2018-06-13T01:01:53.923Z,93.31
2018-06-13T01:03:46.817Z,93.98
2018-06-13T01:04:46.754Z,94.26
2018-06-13T01:06:39.617Z,94.17
2018-06-13T01:07:39.543Z,93.60
2018-06-13T01:09:32.554Z,94.17
2018-06-13T01:10:32.498Z,93.69
2018-06-13T01:12:25.301Z,93.60
2018-06-13T01:13:25.268Z,93.50
2018-06-13T01:15:18.488Z,93.60
2018-06-13T01:16:18.367Z,93.40
2018-06-13T01:18:11.357Z,93.60
2018-06-13T01:19:11.323Z,93.60
2018-06-13T01:21:04.332Z,94.26
2018-06-13T01:22:04.273Z,93.79
2018-06-13T01:23:57.366Z,93.98
2018-06-13T01:24:57.309Z,93.60
2018-06-13T01:26:50.273Z,93.50
2018-06-13T01:27:50.235Z,93.69
2018-06-13T01:29:43.234Z,93.69
2018-06-13T01:30:43.196Z,93.31
2018-06-13T01:32:36.247Z,93.40
2018-06-13T01:33:36.228Z,93.31
2018-06-13T01:35:29.217Z,93.21
2018-06-13T01:36:29.246Z,93.60
2018-06-13T01:38:22.337Z,93.79
2018-06-13T01:39:22.295Z,93.50
2018-06-13T01:41:15.292Z,93.60
2018-06-13T01:42:15.258Z,93.31
2018-06-13T01:44:08.228Z,93.31
2018-06-13T01:45:08.207Z,93.50
2018-06-13T01:47:01.033Z,93.31
2018-06-13T01:48:00.983Z,93.12
2018-06-13T01:49:53.988Z,93.60
2018-06-13T01:50:53.938Z,93.21
2018-06-13T01:52:46.957Z,93.12
2018-06-13T01:53:46.957Z,93.60
2018-06-13T01:55:39.747Z,93.21
2018-06-13T01:56:39.693Z,93.02
2018-06-13T01:58:32.506Z,93.31
2018-06-13T01:59:32.473Z,93.12
2018-06-13T02:01:25.384Z,93.98
2018-06-13T02:02:25.232Z,93.31
2018-06-13T02:04:18.227Z,93.79
2018-06-13T02:05:18.195Z,93.12
2018-06-13T02:07:11.189Z,93.60
2018-06-13T02:08:11.159Z,93.60
2018-06-13T02:10:03.958Z,93.50
2018-06-13T02:11:03.926Z,93.31
2018-06-13T02:12:56.930Z,93.21
2018-06-13T02:13:56.885Z,93.31
2018-06-13T02:15:49.912Z,93.79
2018-06-13T02:16:49.831Z,93.79
2018-06-13T02:18:43.067Z,93.79
2018-06-13T02:19:42.929Z,93.40
2018-06-13T02:21:35.954Z,93.79
2018-06-13T02:22:35.886Z,93.79
2018-06-13T02:24:28.869Z,93.69
2018-06-13T02:25:28.834Z,93.50
2018-06-13T02:27:21.712Z,93.50
2018-06-13T02:28:21.626Z,93.79
2018-06-13T02:30:14.654Z,94.26
2018-06-13T02:31:14.627Z,93.60
2018-06-13T02:33:07.669Z,94.26
2018-06-13T02:34:07.606Z,94.17
2018-06-13T02:36:00.825Z,94.55
2018-06-13T02:37:00.760Z,93.74
2018-06-13T02:38:53.770Z,94.60
2018-06-13T02:39:53.707Z,94.22
2018-06-13T02:41:46.759Z,94.79
2018-06-13T02:42:46.715Z,94.89
2018-06-13T02:44:39.537Z,94.41
2018-06-13T02:45:39.482Z,94.89
2018-06-13T02:47:32.527Z,94.89
2018-06-13T02:48:32.495Z,95.17
2018-06-13T02:50:25.317Z,94.89
2018-06-13T02:51:25.313Z,95.56
2018-06-13T02:53:18.442Z,94.70
2018-06-13T02:54:18.375Z,95.36
2018-06-13T02:56:11.366Z,94.79
2018-06-13T02:57:11.316Z,95.27
2018-06-13T02:59:04.311Z,95.17
2018-06-13T03:00:04.262Z,95.36
2018-06-13T03:01:57.094Z,94.98
2018-06-13T03:02:57.048Z,95.65
2018-06-13T03:04:50.023Z,95.65
2018-06-13T03:05:49.992Z,96.03
2018-06-13T03:07:42.993Z,95.46
2018-06-13T03:08:42.931Z,95.65
2018-06-13T03:10:35.938Z,95.84
2018-06-13T03:11:35.877Z,95.65
2018-06-13T03:13:28.889Z,95.75
2018-06-13T03:14:28.828Z,95.84
2018-06-13T03:16:21.841Z,96.51
2018-06-13T03:17:21.806Z,95.75
2018-06-13T03:19:15.001Z,95.94
2018-06-13T03:20:14.922Z,96.70
2018-06-13T03:22:07.915Z,95.65
2018-06-13T03:23:07.883Z,96.13
2018-06-13T03:25:00.896Z,95.65
2018-06-13T03:26:00.841Z,95.36
2018-06-13T03:27:53.674Z,95.84
2018-06-13T03:28:53.626Z,96.03
2018-06-13T03:30:46.621Z,95.36
2018-06-13T03:31:46.578Z,95.46
2018-06-13T03:33:39.582Z,95.65
2018-06-13T03:34:39.534Z,95.94
2018-06-13T03:36:32.708Z,96.22
2018-06-13T03:37:32.649Z,95.84
2018-06-13T03:39:25.638Z,96.51
2018-06-13T03:40:25.589Z,96.56
2018-06-13T03:42:18.579Z,96.84
2018-06-13T03:43:18.534Z,96.99
2018-06-13T03:45:11.693Z,97.13
2018-06-13T03:46:11.640Z,96.94
2018-06-13T03:48:04.639Z,97.08
2018-06-13T03:49:04.593Z,96.22
2018-06-13T03:50:57.768Z,96.89
2018-06-13T03:51:57.717Z,97.08
2018-06-13T03:53:50.719Z,96.56
2018-06-13T03:54:50.677Z,97.32
2018-06-13T03:56:43.483Z,96.66
2018-06-13T03:57:43.452Z,97.23
2018-06-13T03:59:36.698Z,96.94
2018-06-13T04:00:36.580Z,96.99
2018-06-13T04:02:29.562Z,97.13
2018-06-13T04:03:29.514Z,97.23
2018-06-13T04:05:22.505Z,97.03
2018-06-13T04:06:22.465Z,96.99
2018-06-13T04:08:15.596Z,97.28
2018-06-13T04:09:15.571Z,97.66
2018-06-13T04:11:08.589Z,97.75
2018-06-13T04:12:08.523Z,97.75
2018-06-13T04:14:01.500Z,97.28
2018-06-13T04:15:01.455Z,97.08
2018-06-13T04:16:54.470Z,98.04
2018-06-13T04:17:54.440Z,97.75
2018-06-13T04:19:47.457Z,97.56
2018-06-13T04:20:47.385Z,97.18
2018-06-13T04:22:40.468Z,97.47
2018-06-13T04:23:40.429Z,98.04
2018-06-13T04:25:33.446Z,97.75
2018-06-13T04:26:33.390Z,97.56
2018-06-13T04:28:26.399Z,97.75
2018-06-13T04:29:26.358Z,97.37
2018-06-13T04:31:19.477Z,97.47
2018-06-13T04:32:19.445Z,97.85
2018-06-13T04:34:12.450Z,97.75
2018-06-13T04:35:12.400Z,97.85
2018-06-13T04:37:05.416Z,97.66
2018-06-13T04:38:05.351Z,97.18
2018-06-13T04:39:58.211Z,97.85
2018-06-13T04:40:58.127Z,98.04
2018-06-13T04:42:51.121Z,97.56
2018-06-13T04:43:51.076Z,97.47
2018-06-13T04:45:43.911Z,98.23
2018-06-13T04:46:43.861Z,98.33
2018-06-13T04:48:36.867Z,98.52
2018-06-13T04:49:36.820Z,97.75
2018-06-13T04:51:29.648Z,97.75
2018-06-13T04:52:29.586Z,97.56
2018-06-13T04:54:22.585Z,97.85
2018-06-13T04:55:22.550Z,97.85
2018-06-13T04:57:15.545Z,97.75
2018-06-13T04:58:15.546Z,97.56
2018-06-13T05:00:08.633Z,97.75
2018-06-13T05:01:08.597Z,98.04
2018-06-13T05:03:01.630Z,98.04
2018-06-13T05:04:01.555Z,98.04
2018-06-13T05:05:54.551Z,98.52
2018-06-13T05:06:54.496Z,98.90
2018-06-13T05:08:47.392Z,97.66
2018-06-13T05:09:47.347Z,98.23
2018-06-13T05:11:40.361Z,98.52
2018-06-13T05:12:40.307Z,98.52
2018-06-13T05:14:33.283Z,98.33
2018-06-13T05:15:33.296Z,98.28
2018-06-13T05:17:26.473Z,98.38
2018-06-13T05:18:26.352Z,98.57
2018-06-13T05:20:19.370Z,97.04
2018-06-13T05:21:19.335Z,97.71
2018-06-13T05:23:12.333Z,97.13
2018-06-13T05:24:12.281Z,98.09
2018-06-13T05:26:05.115Z,97.90
2018-06-13T05:27:05.071Z,97.80
2018-06-13T05:28:58.081Z,97.94
2018-06-13T05:29:58.028Z,98.28
2018-06-13T05:31:51.009Z,98.47
2018-06-13T05:32:51.001Z,98.13
2018-06-13T05:34:43.962Z,98.85
2018-06-13T05:35:43.922Z,98.61
2018-06-13T05:37:36.921Z,98.09
2018-06-13T05:38:36.861Z,98.38
2018-06-13T05:40:29.867Z,98.47
2018-06-13T05:41:29.819Z,98.75
2018-06-13T05:43:23.046Z,98.57
2018-06-13T05:44:22.924Z,98.38
2018-06-13T05:46:15.739Z,97.71
2018-06-13T05:47:15.702Z,97.42
2018-06-13T05:49:08.722Z,97.71
2018-06-13T05:50:08.668Z,96.84
2018-06-13T05:52:01.889Z,97.13
2018-06-13T05:53:01.766Z,97.13
2018-06-13T05:54:54.791Z,96.47
2018-06-13T05:55:54.719Z,96.66
2018-06-13T05:57:47.703Z,95.98
2018-06-13T05:58:47.677Z,96.99
2018-06-13T06:00:40.558Z,96.42
2018-06-13T06:01:40.522Z,96.32
2018-06-13T06:03:33.493Z,96.03
2018-06-13T06:04:33.467Z,96.03
2018-06-13T06:06:26.478Z,95.94
2018-06-13T06:07:26.418Z,95.94
2018-06-13T06:09:19.568Z,95.94
2018-06-13T06:10:19.555Z,95.27
2018-06-13T06:12:12.520Z,95.27
2018-06-13T06:13:12.518Z,94.98
2018-06-13T06:15:05.492Z,94.70
2018-06-13T06:16:05.424Z,94.79
2018-06-13T06:17:58.228Z,94.98
2018-06-13T06:18:58.199Z,95.94
2018-06-13T06:20:51.221Z,95.65
2018-06-13T06:21:51.150Z,95.56
2018-06-13T06:23:44.137Z,94.98
2018-06-13T06:24:44.129Z,95.56
2018-06-13T06:26:36.932Z,94.70
2018-06-13T06:27:36.880Z,94.79
2018-06-13T06:29:29.681Z,95.17
2018-06-13T06:30:29.650Z,94.12
2018-06-13T06:32:22.661Z,94.07
2018-06-13T06:33:22.608Z,94.07
2018-06-13T06:35:15.611Z,94.07
2018-06-13T06:36:15.590Z,94.36
2018-06-13T06:38:08.796Z,93.88
2018-06-13T06:39:08.649Z,94.26
2018-06-13T06:41:01.627Z,93.30
2018-06-13T06:42:01.607Z,93.21
2018-06-13T06:43:54.616Z,93.35
2018-06-13T06:44:54.575Z,93.16
2018-06-13T06:46:47.388Z,92.78
2018-06-13T06:47:47.344Z,92.68
2018-06-13T06:49:40.397Z,92.35
2018-06-13T06:50:40.295Z,92.54
2018-06-13T06:52:33.297Z,92.44
2018-06-13T06:53:33.310Z,92.16
2018-06-13T06:55:26.542Z,92.16
2018-06-13T06:56:26.336Z,91.63
2018-06-13T06:58:19.332Z,92.21
2018-06-13T06:59:19.293Z,92.21
2018-06-13T07:01:12.298Z,89.90
2018-06-13T07:02:12.250Z,89.33
2018-06-13T07:04:05.082Z,88.95
2018-06-13T07:05:05.027Z,88.47
2018-06-13T07:06:58.023Z,89.37
2018-06-13T07:07:57.988Z,88.80
2018-06-13T07:09:51.008Z,88.90
2018-06-13T07:10:50.961Z,88.23
2018-06-13T07:12:44.091Z,87.74
2018-06-13T07:13:44.058Z,86.79
2018-06-13T07:15:36.889Z,87.17
2018-06-13T07:16:36.842Z,87.94
2018-06-13T07:18:29.828Z,87.74
2018-06-13T07:19:29.862Z,87.94
2018-06-13T07:21:23.091Z,86.02
2018-06-13T07:22:22.909Z,84.78
2018-06-13T07:24:15.911Z,84.30
2018-06-13T07:25:15.873Z,84.58
2018-06-13T07:27:08.882Z,85.25
2018-06-13T07:28:08.857Z,85.16
2018-06-13T07:30:01.694Z,83.92
2018-06-13T07:31:01.634Z,83.72
2018-06-13T07:32:54.617Z,84.11
2018-06-13T07:33:54.589Z,83.72
2018-06-13T07:35:47.424Z,84.39
2018-06-13T07:36:47.383Z,82.86
2018-06-13T07:38:40.387Z,82.67
2018-06-13T07:39:40.329Z,82.96
2018-06-13T07:41:33.209Z,82.57
2018-06-13T07:42:33.118Z,82.00
2018-06-13T07:44:26.123Z,82.67
2018-06-13T07:45:26.079Z,83.44
2018-06-13T07:47:19.081Z,83.15
2018-06-13T07:48:19.037Z,84.20
2018-06-13T07:50:12.234Z,83.82
2018-06-13T07:51:12.129Z,83.63
2018-06-13T07:53:05.155Z,82.38
2018-06-13T07:54:05.099Z,82.76
2018-06-13T07:55:58.083Z,82.86
2018-06-13T07:56:58.050Z,82.52
2018-06-13T07:58:51.125Z,82.90
2018-06-13T07:59:51.077Z,82.14
2018-06-13T08:01:43.919Z,82.32
2018-06-13T08:02:43.863Z,82.52
2018-06-13T08:04:36.854Z,81.46
2018-06-13T08:05:36.814Z,81.66
2018-06-13T08:07:29.655Z,81.27
2018-06-13T08:08:29.725Z,80.12
2018-06-13T08:10:22.517Z,79.22
2018-06-13T08:11:22.379Z,79.22
2018-06-13T08:13:15.219Z,79.80
2018-06-13T08:14:15.153Z,80.08
2018-06-13T08:16:08.159Z,79.89
2018-06-13T08:17:08.119Z,79.60
2018-06-13T08:19:01.125Z,79.41
2018-06-13T08:20:01.053Z,79.99
2018-06-13T08:21:53.889Z,79.70
2018-06-13T08:22:53.852Z,79.89
2018-06-13T08:24:46.832Z,79.60
2018-06-13T08:25:46.779Z,79.99
2018-06-13T08:27:39.805Z,79.99
2018-06-13T08:28:39.765Z,79.70
2018-06-13T08:30:32.850Z,79.99
2018-06-13T08:31:32.815Z,79.70
2018-06-13T08:33:25.837Z,80.18
2018-06-13T08:34:25.789Z,80.47
2018-06-13T08:36:18.798Z,79.89
2018-06-13T08:37:18.767Z,79.45
2018-06-13T08:39:11.816Z,79.32
2018-06-13T08:40:11.745Z,80.03
2018-06-13T08:42:04.729Z,79.93
2018-06-13T08:43:04.704Z,80.12
2018-06-13T08:44:57.700Z,79.93
2018-06-13T08:45:57.646Z,79.64
2018-06-13T08:47:50.692Z,79.36
2018-06-13T08:48:50.652Z,79.16
2018-06-13T08:50:43.696Z,78.63
2018-06-13T08:51:43.647Z,78.25
2018-06-13T08:53:36.856Z,77.67
2018-06-13T08:54:36.737Z,78.05
2018-06-13T08:56:29.727Z,77.76
2018-06-13T08:57:29.712Z,78.25
2018-06-13T08:59:22.711Z,79.26
2018-06-13T09:00:22.648Z,79.64
2018-06-13T09:02:15.471Z,80.41
2018-06-13T09:03:15.446Z,79.83
2018-06-13T09:05:08.437Z,79.26
2018-06-13T09:06:08.406Z,79.07
2018-06-13T09:08:01.203Z,79.07
2018-06-13T09:09:01.224Z,79.26
2018-06-13T09:10:54.205Z,79.36
2018-06-13T09:11:54.133Z,80.03
2018-06-13T09:13:47.057Z,81.27
2018-06-13T09:14:46.992Z,81.37
2018-06-13T09:16:39.806Z,82.62
2018-06-13T09:17:39.777Z,82.14
2018-06-13T09:19:32.776Z,82.09
2018-06-13T09:20:32.736Z,82.86
2018-06-13T09:22:26.017Z,81.62
2018-06-13T09:23:25.846Z,82.48
2018-06-13T09:25:18.854Z,82.09
2018-06-13T09:26:18.798Z,82.00
2018-06-13T09:28:11.796Z,82.96
2018-06-13T09:29:11.765Z,84.01
2018-06-13T09:31:04.944Z,84.11
2018-06-13T09:32:04.887Z,84.20
2018-06-13T09:33:57.882Z,84.11
2018-06-13T09:34:57.863Z,83.53
2018-06-13T09:36:50.993Z,84.55
2018-06-13T09:37:50.941Z,85.06
2018-06-13T09:39:43.968Z,84.49
2018-06-13T09:40:43.897Z,84.78
2018-06-13T09:42:36.914Z,84.78
2018-06-13T09:43:36.874Z,85.06
2018-06-13T09:45:30.017Z,85.64
2018-06-13T09:46:29.963Z,85.83
2018-06-13T09:48:22.962Z,85.25
2018-06-13T09:49:22.924Z,85.25
2018-06-13T09:51:16.169Z,84.49
2018-06-13T09:52:16.022Z,84.20
2018-06-13T09:54:09.013Z,84.44
2018-06-13T09:55:08.974Z,84.82
2018-06-13T09:57:01.984Z,83.95
2018-06-13T09:58:01.938Z,83.00
2018-06-13T09:59:55.133Z,83.14
2018-06-13T10:00:55.014Z,83.23
2018-06-13T10:02:48.005Z,82.27
2018-06-13T10:03:47.972Z,81.31
2018-06-13T10:05:40.805Z,80.35
2018-06-13T10:06:40.760Z,80.07
2018-06-13T10:08:33.965Z,79.78
2018-06-13T10:09:33.880Z,79.14
2018-06-13T10:11:26.877Z,78.86
2018-06-13T10:12:26.830Z,77.04
2018-06-13T10:14:19.840Z,77.04
2018-06-13T10:15:19.788Z,76.84
2018-06-13T10:17:12.855Z,75.82
2018-06-13T10:18:12.794Z,75.92
2018-06-13T10:20:05.816Z,76.12
2018-06-13T10:21:05.756Z,76.98
2018-06-13T10:22:59.015Z,74.48
2018-06-13T10:23:58.876Z,74.39
2018-06-13T10:25:51.872Z,75.54
2018-06-13T10:26:51.837Z,74.96
2018-06-13T10:28:44.858Z,74.58
2018-06-13T10:29:44.814Z,74.01
2018-06-13T10:31:37.620Z,74.19
2018-06-13T10:32:37.626Z,74.96
2018-06-13T10:34:30.601Z,75.06
2018-06-13T10:35:30.545Z,75.25
2018-06-13T10:37:23.558Z,74.48
2018-06-13T10:38:23.534Z,74.68
2018-06-13T10:40:16.743Z,74.77
2018-06-13T10:41:16.624Z,74.68
2018-06-13T10:43:09.602Z,73.87
2018-06-13T10:44:09.572Z,73.77
2018-06-13T10:46:02.594Z,74.60
2018-06-13T10:47:02.519Z,74.51
2018-06-13T10:48:55.374Z,74.41
2018-06-13T10:49:55.320Z,74.79
2018-06-13T10:51:48.304Z,75.18
2018-06-13T10:52:48.274Z,76.23
2018-06-13T10:54:41.290Z,76.42
2018-06-13T10:55:41.372Z,75.95
2018-06-13T10:57:34.406Z,75.75
2018-06-13T10:58:34.343Z,75.95
2018-06-13T11:00:27.335Z,75.75
2018-06-13T11:01:27.295Z,75.65
2018-06-13T11:03:20.514Z,74.51
2018-06-13T11:04:20.288Z,75.18
2018-06-13T11:06:13.090Z,74.51
2018-06-13T11:07:13.050Z,75.37
2018-06-13T11:09:06.021Z,75.18
2018-06-13T11:10:05.991Z,74.69
2018-06-13T11:11:59.097Z,75.18
2018-06-13T11:12:58.950Z,75.18
2018-06-13T11:14:52.156Z,74.79
2018-06-13T11:15:51.992Z,75.31
2018-06-13T11:17:45.000Z,74.51
2018-06-13T11:18:44.957Z,74.93
2018-06-13T11:20:38.246Z,73.58
2018-06-13T11:21:38.187Z,71.76
2018-06-13T11:23:31.202Z,71.28
2018-06-13T11:24:31.150Z,71.61
2018-06-13T11:26:23.976Z,70.93
2018-06-13T11:27:23.917Z,70.93
2018-06-13T11:29:17.145Z,69.97
2018-06-13T11:30:17.021Z,69.81
2018-06-13T11:32:10.031Z,69.05
2018-06-13T11:33:09.980Z,69.24
2018-06-13T11:35:02.989Z,68.85
2018-06-13T11:36:02.927Z,69.14
2018-06-13T11:37:56.102Z,67.93
2018-06-13T11:38:56.067Z,68.31
2018-06-13T11:40:49.046Z,68.41
2018-06-13T11:41:49.030Z,68.28
2018-06-13T11:43:42.021Z,67.64
2018-06-13T11:44:41.976Z,68.60
2018-06-13T11:46:34.926Z,67.45
2018-06-13T11:47:34.777Z,67.86
2018-06-13T11:49:27.769Z,66.97
2018-06-13T11:50:27.736Z,66.81
2018-06-13T11:52:20.722Z,66.97
2018-06-13T11:53:20.671Z,66.77
2018-06-13T11:55:13.494Z,66.97
2018-06-13T11:56:13.480Z,68.12
2018-06-13T11:58:06.482Z,68.41
2018-06-13T11:59:06.454Z,69.27
2018-06-13T12:00:59.362Z,68.02
2018-06-13T12:01:59.223Z,68.31
2018-06-13T12:03:52.683Z,66.00
2018-06-13T12:04:52.188Z,66.87
2018-06-13T12:06:45.021Z,67.45
2018-06-13T12:07:44.978Z,67.96
2018-06-13T12:09:38.005Z,66.68
2018-06-13T12:10:37.928Z,67.07
2018-06-13T12:12:30.952Z,65.43
2018-06-13T12:13:30.903Z,65.46
2018-06-13T12:15:24.160Z,65.94
2018-06-13T12:16:24.058Z,66.14
2018-06-13T12:18:17.099Z,65.56
2018-06-13T12:19:17.037Z,63.25
2018-06-13T12:21:10.033Z,63.41
2018-06-13T12:22:10.009Z,63.99
2018-06-13T12:24:03.083Z,63.51
2018-06-13T12:25:03.053Z,64.09
2018-06-13T12:26:56.053Z,65.14
2018-06-13T12:27:56.040Z,64.95
2018-06-13T12:29:49.223Z,65.33
2018-06-13T12:30:49.132Z,65.72
2018-06-13T12:32:42.132Z,66.36
2018-06-13T12:33:42.098Z,66.55
2018-06-13T12:35:35.104Z,67.51
2018-06-13T12:36:35.053Z,67.03
2018-06-13T12:38:27.949Z,67.90
2018-06-13T12:39:27.904Z,67.80
2018-06-13T12:41:20.888Z,67.51
2018-06-13T12:42:20.863Z,67.51
2018-06-13T12:44:13.849Z,67.70
2018-06-13T12:45:13.805Z,67.51
2018-06-13T12:47:07.238Z,68.18
2018-06-13T12:48:06.899Z,69.72
2018-06-13T12:49:59.907Z,69.34
2018-06-13T12:50:59.859Z,69.43
2018-06-13T12:52:52.882Z,69.53
2018-06-13T12:53:52.822Z,69.24
2018-06-13T12:55:45.658Z,68.34
2018-06-13T12:56:45.619Z,69.49
2018-06-13T12:58:38.757Z,69.24
2018-06-13T12:59:38.722Z,69.11
2018-06-13T13:01:32.044Z,69.68
2018-06-13T13:02:31.915Z,69.59
2018-06-13T13:04:24.896Z,69.68
2018-06-13T13:05:24.874Z,69.49
2018-06-13T13:07:17.868Z,70.45
2018-06-13T13:08:17.824Z,69.97
2018-06-13T13:10:10.645Z,70.07
2018-06-13T13:11:10.605Z,70.36
2018-06-13T13:13:03.637Z,71.51
2018-06-13T13:14:03.591Z,71.89
2018-06-13T13:15:56.623Z,71.03
2018-06-13T13:16:56.569Z,70.93
2018-06-13T13:18:49.764Z,70.01
2018-06-13T13:19:49.641Z,70.49
2018-06-13T13:21:42.621Z,70.01
2018-06-13T13:22:42.589Z,71.00
2018-06-13T13:24:35.604Z,68.51
2018-06-13T13:25:35.553Z,67.00
2018-06-13T13:27:28.377Z,67.80
2018-06-13T13:28:28.356Z,65.40
2018-06-13T13:30:21.372Z,64.34
2018-06-13T13:31:21.294Z,64.95
2018-06-13T13:33:14.320Z,62.45
2018-06-13T13:34:14.266Z,61.68
2018-06-13T13:36:07.469Z,61.77
2018-06-13T13:37:07.351Z,62.57
2018-06-13T13:39:00.365Z,62.57
2018-06-13T13:40:00.317Z,63.44
2018-06-13T13:41:53.316Z,60.07
2018-06-13T13:42:53.285Z,61.22
2018-06-13T13:44:46.405Z,62.15
2018-06-13T13:45:46.400Z,59.00
2018-06-13T13:47:39.330Z,56.59
2018-06-13T13:48:39.295Z,56.24
2018-06-13T13:50:32.556Z,54.76
2018-06-13T13:51:32.401Z,54.79
2018-06-13T13:53:25.396Z,55.59
2018-06-13T13:54:25.362Z,54.05
2018-06-13T13:56:18.367Z,53.56
2018-06-13T13:57:18.320Z,53.47
2018-06-13T13:59:11.159Z,52.69
2018-06-13T14:00:11.158Z,52.67
2018-06-13T14:02:04.145Z,54.24
2018-06-13T14:03:04.091Z,52.21
2018-06-13T14:04:57.088Z,50.79
2018-06-13T14:05:57.071Z,51.29
2018-06-13T14:07:50.277Z,52.81
2018-06-13T14:08:50.176Z,53.20
2018-06-13T14:10:43.171Z,51.82
2018-06-13T14:11:43.135Z,52.40
2018-06-13T14:13:36.536Z,53.34
2018-06-13T14:14:36.482Z,53.80
2018-06-13T14:16:29.548Z,55.56
2018-06-13T14:17:29.491Z,55.92
2018-06-13T14:19:22.631Z,54.74
2018-06-13T14:20:22.597Z,54.16
2018-06-13T14:22:15.733Z,54.80
2018-06-13T14:23:15.566Z,55.67
2018-06-13T14:25:08.605Z,56.44
2018-06-13T14:26:08.577Z,56.12
2018-06-13T14:28:01.606Z,57.25
2018-06-13T14:29:01.557Z,57.35
2018-06-13T14:30:54.551Z,58.18
2018-06-13T14:31:54.522Z,59.15
2018-06-13T14:33:47.358Z,58.67
2018-06-13T14:34:47.306Z,59.24
2018-06-13T14:36:40.136Z,59.60
2018-06-13T14:37:40.088Z,59.79
2018-06-13T14:39:33.096Z,60.27
2018-06-13T14:40:33.054Z,59.89
2018-06-13T14:42:26.185Z,60.91
2018-06-13T14:43:26.132Z,61.61
2018-06-13T14:45:19.343Z,61.87
2018-06-13T14:46:19.278Z,62.19
2018-06-13T14:48:12.243Z,61.61
2018-06-13T14:49:12.202Z,62.58
2018-06-13T14:51:05.430Z,62.87
2018-06-13T14:52:05.360Z,62.77
2018-06-13T14:53:58.367Z,62.07
2018-06-13T14:54:58.317Z,62.74
2018-06-13T14:56:51.452Z,64.02
2018-06-13T14:57:51.339Z,63.25
2018-06-13T14:59:44.788Z,62.03
2018-06-13T15:00:44.173Z,60.11
2018-06-13T15:02:37.144Z,60.30
2018-06-13T15:03:37.113Z,59.37
2018-06-13T15:05:29.949Z,59.08
2018-06-13T15:06:29.913Z,58.22
2018-06-13T15:08:22.881Z,55.71
2018-06-13T15:09:22.862Z,57.06
2018-06-13T15:11:15.885Z,57.35
2018-06-13T15:12:15.848Z,57.35
2018-06-13T15:14:08.841Z,56.77
2018-06-13T15:15:08.823Z,56.77
2018-06-13T15:17:02.104Z,57.28
2018-06-13T15:18:01.949Z,57.18
2018-06-13T15:19:54.937Z,56.90
2018-06-13T15:20:54.914Z,57.28
2018-06-13T15:22:47.741Z,56.82
2018-06-13T15:23:47.709Z,56.41
2018-06-13T15:25:40.560Z,56.80
2018-06-13T15:26:40.489Z,56.51
2018-06-13T15:28:33.358Z,55.45
2018-06-13T15:29:33.292Z,56.90
2018-06-13T15:31:26.365Z,54.22
2018-06-13T15:32:26.340Z,54.22
2018-06-13T15:34:19.340Z,54.13
2018-06-13T15:35:19.300Z,53.74
2018-06-13T15:37:12.291Z,54.38
2018-06-13T15:38:12.224Z,52.95
2018-06-13T15:40:05.235Z,51.32
2018-06-13T15:41:05.204Z,51.53
2018-06-13T15:42:58.229Z,51.07
2018-06-13T15:43:58.194Z,50.98
2018-06-13T15:45:51.094Z,49.41
2018-06-13T15:46:51.057Z,50.18
2018-06-13T15:48:44.101Z,51.25
2018-06-13T15:49:44.034Z,51.89
2018-06-13T15:51:37.041Z,52.76
2018-06-13T15:52:37.017Z,53.19
2018-06-13T15:54:30.448Z,55.77
2018-06-13T15:55:29.859Z,56.05
2018-06-13T15:57:22.885Z,57.31
2018-06-13T15:58:22.825Z,56.44
2018-06-13T16:00:16.752Z,58.05
2018-06-13T16:01:16.665Z,59.27
2018-06-13T16:03:09.457Z,60.72
2018-06-13T16:04:09.432Z,61.19
2018-06-13T16:06:02.581Z,61.46
2018-06-13T16:07:02.516Z,61.07
2018-06-13T16:08:55.510Z,60.30
2018-06-13T16:09:55.480Z,60.88
2018-06-13T16:11:48.508Z,60.30
2018-06-13T16:12:48.465Z,59.53
2018-06-13T16:14:41.481Z,60.27
2018-06-13T16:15:41.425Z,61.14
2018-06-13T16:17:34.255Z,61.61
2018-06-13T16:18:34.205Z,61.04
2018-06-13T16:20:27.214Z,61.14
2018-06-13T16:21:27.152Z,60.75
2018-06-13T16:23:20.286Z,59.41
2018-06-13T16:24:20.244Z,60.37
2018-06-13T16:26:13.237Z,59.41
2018-06-13T16:27:13.187Z,58.83
2018-06-13T16:29:06.267Z,59.69
2018-06-13T16:30:06.241Z,59.41
2018-06-13T16:31:59.271Z,60.17
2018-06-13T16:32:59.234Z,59.41
2018-06-13T16:34:52.041Z,57.58
2018-06-13T16:35:52.072Z,58.37
2018-06-13T16:37:45.032Z,59.53
2018-06-13T16:38:44.973Z,59.05
2018-06-13T16:40:37.973Z,58.86
2018-06-13T16:41:37.816Z,58.57
2018-06-13T16:43:30.837Z,57.83
2018-06-13T16:44:30.760Z,58.02
2018-06-13T16:46:23.787Z,57.35
2018-06-13T16:47:23.772Z,57.15
2018-06-13T16:49:16.571Z,59.15
2018-06-13T16:50:16.543Z,59.15
2018-06-13T16:52:09.544Z,60.01
2018-06-13T16:53:09.504Z,59.53
2018-06-13T16:55:02.503Z,60.30
2018-06-13T16:56:02.469Z,60.21
2018-06-13T16:57:55.657Z,60.97
2018-06-13T16:58:55.581Z,61.07
2018-06-13T17:00:48.419Z,60.88
2018-06-13T17:01:48.388Z,60.78
2018-06-13T17:03:41.446Z,59.34
2018-06-13T17:04:41.338Z,59.82
2018-06-13T17:06:34.533Z,59.05
2018-06-13T17:07:34.475Z,59.24
2018-06-13T17:09:27.435Z,59.44
2018-06-13T17:10:27.390Z,60.01
2018-06-13T17:12:20.421Z,57.42
2018-06-13T17:13:20.335Z,57.48
2018-06-13T17:15:13.172Z,57.32
2018-06-13T17:16:13.128Z,57.13
2018-06-13T17:18:06.129Z,57.29
2018-06-13T17:19:06.088Z,57.20
2018-06-13T17:20:59.058Z,57.87
2018-06-13T17:21:59.029Z,57.10
2018-06-13T17:23:52.445Z,57.58
2018-06-13T17:24:52.125Z,56.91
2018-06-13T17:26:44.945Z,57.00
2018-06-13T17:27:44.943Z,57.87
2018-06-13T17:29:37.883Z,58.35
2018-06-13T17:30:37.854Z,58.92
2018-06-13T17:32:30.839Z,58.35
2018-06-13T17:33:30.828Z,58.25
2018-06-13T17:35:23.771Z,57.00
2018-06-13T17:36:23.720Z,57.29
2018-06-13T17:38:16.707Z,57.29
2018-06-13T17:39:16.669Z,58.25
2018-06-13T17:41:09.650Z,58.64
2018-06-13T17:42:09.603Z,58.73
2018-06-13T17:44:02.448Z,58.22
2018-06-13T17:45:02.472Z,59.02
2018-06-13T17:46:55.399Z,59.09
2018-06-13T17:47:55.339Z,58.61
2018-06-13T17:49:48.322Z,59.47
2018-06-13T17:50:48.339Z,59.76
2018-06-13T17:52:41.490Z,60.72
2018-06-13T17:53:41.353Z,60.66
2018-06-13T17:55:34.469Z,61.04
2018-06-13T17:56:34.291Z,60.82
2018-06-13T17:58:27.270Z,60.82
2018-06-13T17:59:27.226Z,59.66
2018-06-13T18:01:20.081Z,60.24
2018-06-13T18:02:20.016Z,60.72
2018-06-13T18:04:13.012Z,60.72
2018-06-13T18:05:12.960Z,60.43
2018-06-13T18:07:05.942Z,60.82
2018-06-13T18:08:05.900Z,61.11
2018-06-13T18:09:58.860Z,62.07
2018-06-13T18:10:58.826Z,62.64
2018-06-13T18:12:51.854Z,62.16
2018-06-13T18:13:51.801Z,62.16
2018-06-13T18:15:44.607Z,62.35
2018-06-13T18:16:44.580Z,62.64
2018-06-13T18:18:37.565Z,61.55
2018-06-13T18:19:37.511Z,61.46
2018-06-13T18:21:30.665Z,61.65
2018-06-13T18:22:30.626Z,62.13
2018-06-13T18:24:23.639Z,62.52
2018-06-13T18:25:23.604Z,62.32
2018-06-13T18:27:16.471Z,61.84
2018-06-13T18:28:16.379Z,61.55
2018-06-13T18:30:09.500Z,62.99
2018-06-13T18:31:09.470Z,62.90
2018-06-13T18:33:02.451Z,62.77